Terminal Aerodrome Forecast
Issued by NWS

Home | Current Version | Previous Version | Text Only | Print | Product List | Glossary On
Versions: 1 2 3 4 5 6 7 8 9 10 11 12 13 14 15 16 17 18 19 20 21 22 23 24 25
812
FTUS46 KSEW 260302 AAA
TAFSEA
TAF AMD
KSEA 260302Z 2603/2706 24008KT P6SM BKN030 BKN060
     FM260800 21010G20KT P6SM OVC015
     FM262100 21016G23KT P6SM OVC035
     FM270000 21017G24KT P6SM BKN050=

USA.gov is the U.S. government's official web portal to all federal, state and local government web resources and services.